sensor_id;sensor_type;location;lat;lon;timestamp;temperature;humidity
12089;DHT22;6107;49.078;8.578;2023-05-07T00:01:33;13.50;99.90
12089;DHT22;6107;49.078;8.578;2023-05-07T00:03:58;13.40;99.90
12089;DHT22;6107;49.078;8.578;2023-05-07T00:06:24;13.40;99.90
12089;DHT22;6107;49.078;8.578;2023-05-07T00:08:51;13.50;99.90
12089;DHT22;6107;49.078;8.578;2023-05-07T00:11:16;13.50;99.90
12089;DHT22;6107;49.078;8.578;2023-05-07T00:13:42;13.50;99.90
12089;DHT22;6107;49.078;8.578;2023-05-07T00:16:07;13.40;99.90
12089;DHT22;6107;49.078;8.578;2023-05-07T00:18:33;13.30;99.90
12089;DHT22;6107;49.078;8.578;2023-05-07T00:20:58;13.10;99.90
12089;DHT22;6107;49.078;8.578;2023-05-07T00:23:24;12.70;99.90
12089;DHT22;6107;49.078;8.578;2023-05-07T00:25:49;12.70;99.90
12089;DHT22;6107;49.078;8.578;2023-05-07T00:28:15;12.80;99.90
12089;DHT22;6107;49.078;8.578;2023-05-07T00:30:40;12.90;99.90
12089;DHT22;6107;49.078;8.578;2023-05-07T00:33:06;12.90;99.90
12089;DHT22;6107;49.078;8.578;2023-05-07T00:35:31;12.90;99.90
12089;DHT22;6107;49.078;8.578;2023-05-07T00:37:57;13.00;99.90
12089;DHT22;6107;49.078;8.578;2023-05-07T00:40:23;13.00;99.90
12089;DHT22;6107;49.078;8.578;2023-05-07T00:42:48;12.90;99.90
12089;DHT22;6107;49.078;8.578;2023-05-07T00:45:14;12.90;99.90
12089;DHT22;6107;49.078;8.578;2023-05-07T00:47:41;12.80;99.90
12089;DHT22;6107;49.078;8.578;2023-05-07T00:50:07;12.60;99.90
12089;DHT22;6107;49.078;8.578;2023-05-07T00:52:33;12.60;99.90
12089;DHT22;6107;49.078;8.578;2023-05-07T00:55:04;12.80;99.90
12089;DHT22;6107;49.078;8.578;2023-05-07T00:57:39;12.70;99.90
12089;DHT22;6107;49.078;8.578;2023-05-07T01:00:06;12.80;99.90
12089;DHT22;6107;49.078;8.578;2023-05-07T01:02:33;12.90;99.90
12089;DHT22;6107;49.078;8.578;2023-05-07T01:05:00;13.10;99.90
12089;DHT22;6107;49.078;8.578;2023-05-07T01:07:26;13.20;99.90
12089;DHT22;6107;49.078;8.578;2023-05-07T01:09:53;12.70;99.90
12089;DHT22;6107;49.078;8.578;2023-05-07T01:12:18;12.60;99.90
12089;DHT22;6107;49.078;8.578;2023-05-07T01:14:44;12.70;99.90
12089;DHT22;6107;49.078;8.578;2023-05-07T01:17:10;12.70;99.90
12089;DHT22;6107;49.078;8.578;2023-05-07T01:19:35;12.90;99.90
12089;DHT22;6107;49.078;8.578;2023-05-07T01:22:04;13.10;99.90
12089;DHT22;6107;49.078;8.578;2023-05-07T01:24:32;13.10;99.90
12089;DHT22;6107;49.078;8.578;2023-05-07T01:26:59;13.20;99.90
12089;DHT22;6107;49.078;8.578;2023-05-07T01:29:24;13.40;99.90
12089;DHT22;6107;49.078;8.578;2023-05-07T01:31:50;13.40;99.90
12089;DHT22;6107;49.078;8.578;2023-05-07T01:34:17;13.40;99.90
12089;DHT22;6107;49.078;8.578;2023-05-07T01:36:44;13.40;99.90
12089;DHT22;6107;49.078;8.578;2023-05-07T01:39:10;13.10;99.90
12089;DHT22;6107;49.078;8.578;2023-05-07T01:41:36;12.80;99.90
12089;DHT22;6107;49.078;8.578;2023-05-07T01:44:03;12.90;99.90
12089;DHT22;6107;49.078;8.578;2023-05-07T01:46:29;13.00;99.90
12089;DHT22;6107;49.078;8.578;2023-05-07T01:48:56;13.00;99.90
12089;DHT22;6107;49.078;8.578;2023-05-07T01:51:22;13.20;99.90
12089;DHT22;6107;49.078;8.578;2023-05-07T01:53:48;13.30;99.90
12089;DHT22;6107;49.078;8.578;2023-05-07T01:56:17;13.40;99.90
12089;DHT22;6107;49.078;8.578;2023-05-07T01:58:43;13.40;99.90
12089;DHT22;6107;49.078;8.578;2023-05-07T02:01:08;13.40;99.90
12089;DHT22;6107;49.078;8.578;2023-05-07T02:03:34;13.40;99.90
12089;DHT22;6107;49.078;8.578;2023-05-07T02:05:59;13.40;99.90
12089;DHT22;6107;49.078;8.578;2023-05-07T02:08:25;13.40;99.90
12089;DHT22;6107;49.078;8.578;2023-05-07T02:10:50;13.20;99.90
12089;DHT22;6107;49.078;8.578;2023-05-07T02:13:16;12.90;99.90
12089;DHT22;6107;49.078;8.578;2023-05-07T02:15:42;12.90;99.90
12089;DHT22;6107;49.078;8.578;2023-05-07T02:18:08;12.80;99.90
12089;DHT22;6107;49.078;8.578;2023-05-07T02:20:36;12.90;99.90
12089;DHT22;6107;49.078;8.578;2023-05-07T02:23:02;13.10;99.90
12089;DHT22;6107;49.078;8.578;2023-05-07T02:25:27;13.00;99.90
12089;DHT22;6107;49.078;8.578;2023-05-07T02:27:54;12.80;99.90
12089;DHT22;6107;49.078;8.578;2023-05-07T02:30:19;12.80;99.90
12089;DHT22;6107;49.078;8.578;2023-05-07T02:32:46;12.90;99.90
12089;DHT22;6107;49.078;8.578;2023-05-07T02:35:12;13.00;99.90
12089;DHT22;6107;49.078;8.578;2023-05-07T02:37:37;13.20;99.90
12089;DHT22;6107;49.078;8.578;2023-05-07T02:40:03;13.20;99.90
12089;DHT22;6107;49.078;8.578;2023-05-07T02:42:29;13.40;99.90
12089;DHT22;6107;49.078;8.578;2023-05-07T02:44:55;13.30;99.90
12089;DHT22;6107;49.078;8.578;2023-05-07T02:47:20;13.30;99.90
12089;DHT22;6107;49.078;8.578;2023-05-07T02:49:46;13.30;99.90
12089;DHT22;6107;49.078;8.578;2023-05-07T02:52:11;13.30;99.90
12089;DHT22;6107;49.078;8.578;2023-05-07T02:54:37;13.30;99.90
12089;DHT22;6107;49.078;8.578;2023-05-07T02:57:02;13.30;99.90
12089;DHT22;6107;49.078;8.578;2023-05-07T02:59:28;13.40;99.90
12089;DHT22;6107;49.078;8.578;2023-05-07T03:01:54;13.40;99.90
12089;DHT22;6107;49.078;8.578;2023-05-07T03:04:19;13.30;99.90
12089;DHT22;6107;49.078;8.578;2023-05-07T03:06:45;13.40;99.90
12089;DHT22;6107;49.078;8.578;2023-05-07T03:09:11;13.40;99.90
12089;DHT22;6107;49.078;8.578;2023-05-07T03:11:36;13.40;99.90
12089;DHT22;6107;49.078;8.578;2023-05-07T03:14:02;13.40;99.90
12089;DHT22;6107;49.078;8.578;2023-05-07T03:16:27;13.40;99.90
12089;DHT22;6107;49.078;8.578;2023-05-07T03:18:53;13.40;99.90
12089;DHT22;6107;49.078;8.578;2023-05-07T03:21:19;13.40;99.90
12089;DHT22;6107;49.078;8.578;2023-05-07T03:23:44;13.30;99.90
12089;DHT22;6107;49.078;8.578;2023-05-07T03:26:10;13.30;99.90
12089;DHT22;6107;49.078;8.578;2023-05-07T03:28:37;13.30;99.90
12089;DHT22;6107;49.078;8.578;2023-05-07T03:31:02;13.30;99.90
12089;DHT22;6107;49.078;8.578;2023-05-07T03:33:28;13.30;99.90
12089;DHT22;6107;49.078;8.578;2023-05-07T03:35:53;13.30;99.90
12089;DHT22;6107;49.078;8.578;2023-05-07T03:38:19;13.00;99.90
12089;DHT22;6107;49.078;8.578;2023-05-07T03:40:44;12.70;99.90
12089;DHT22;6107;49.078;8.578;2023-05-07T03:43:10;12.60;99.90
12089;DHT22;6107;49.078;8.578;2023-05-07T03:45:35;12.60;99.90
12089;DHT22;6107;49.078;8.578;2023-05-07T03:48:01;12.60;99.90
12089;DHT22;6107;49.078;8.578;2023-05-07T03:50:26;12.50;99.90
12089;DHT22;6107;49.078;8.578;2023-05-07T03:52:52;12.40;99.90
12089;DHT22;6107;49.078;8.578;2023-05-07T03:55:17;12.40;99.90
12089;DHT22;6107;49.078;8.578;2023-05-07T03:57:43;12.20;99.90
12089;DHT22;6107;49.078;8.578;2023-05-07T04:00:09;12.10;99.90
12089;DHT22;6107;49.078;8.578;2023-05-07T04:02:34;12.10;99.90
12089;DHT22;6107;49.078;8.578;2023-05-07T04:05:00;12.00;99.90
12089;DHT22;6107;49.078;8.578;2023-05-07T04:07:25;12.00;99.90
12089;DHT22;6107;49.078;8.578;2023-05-07T04:09:51;12.00;99.90
12089;DHT22;6107;49.078;8.578;2023-05-07T04:12:16;12.10;99.90
12089;DHT22;6107;49.078;8.578;2023-05-07T04:14:42;12.20;99.90
12089;DHT22;6107;49.078;8.578;2023-05-07T04:17:07;12.40;99.90
12089;DHT22;6107;49.078;8.578;2023-05-07T04:19:35;12.40;99.90
12089;DHT22;6107;49.078;8.578;2023-05-07T04:22:00;12.60;99.90
12089;DHT22;6107;49.078;8.578;2023-05-07T04:24:26;12.40;99.90
12089;DHT22;6107;49.078;8.578;2023-05-07T04:26:51;12.10;99.90
12089;DHT22;6107;49.078;8.578;2023-05-07T04:29:18;12.20;99.90
12089;DHT22;6107;49.078;8.578;2023-05-07T04:31:43;12.40;99.90
12089;DHT22;6107;49.078;8.578;2023-05-07T04:34:10;12.60;99.90
12089;DHT22;6107;49.078;8.578;2023-05-07T04:36:37;12.40;99.90
12089;DHT22;6107;49.078;8.578;2023-05-07T04:39:03;12.30;99.90
12089;DHT22;6107;49.078;8.578;2023-05-07T04:41:29;12.40;99.90
12089;DHT22;6107;49.078;8.578;2023-05-07T04:43:55;12.60;99.90
12089;DHT22;6107;49.078;8.578;2023-05-07T04:46:22;12.90;99.90
12089;DHT22;6107;49.078;8.578;2023-05-07T04:48:47;13.10;99.90
12089;DHT22;6107;49.078;8.578;2023-05-07T04:51:13;13.20;99.90
12089;DHT22;6107;49.078;8.578;2023-05-07T04:53:38;13.30;99.90
12089;DHT22;6107;49.078;8.578;2023-05-07T04:56:04;13.30;99.90
12089;DHT22;6107;49.078;8.578;2023-05-07T04:58:29;13.40;99.90
12089;DHT22;6107;49.078;8.578;2023-05-07T05:00:57;13.50;99.90
12089;DHT22;6107;49.078;8.578;2023-05-07T05:03:23;13.50;99.90
12089;DHT22;6107;49.078;8.578;2023-05-07T05:05:52;13.60;99.90
12089;DHT22;6107;49.078;8.578;2023-05-07T05:08:18;13.60;99.90
12089;DHT22;6107;49.078;8.578;2023-05-07T05:10:43;13.60;99.90
12089;DHT22;6107;49.078;8.578;2023-05-07T05:13:09;13.70;99.90
12089;DHT22;6107;49.078;8.578;2023-05-07T05:15:38;13.70;99.90
12089;DHT22;6107;49.078;8.578;2023-05-07T05:18:03;13.70;99.90
12089;DHT22;6107;49.078;8.578;2023-05-07T05:20:29;13.80;99.90
12089;DHT22;6107;49.078;8.578;2023-05-07T05:22:55;13.90;99.90
12089;DHT22;6107;49.078;8.578;2023-05-07T05:25:20;13.90;99.90
12089;DHT22;6107;49.078;8.578;2023-05-07T05:27:45;14.00;99.90
12089;DHT22;6107;49.078;8.578;2023-05-07T05:30:11;14.00;99.90
12089;DHT22;6107;49.078;8.578;2023-05-07T05:32:38;14.10;99.90
12089;DHT22;6107;49.078;8.578;2023-05-07T05:35:04;14.20;99.90
12089;DHT22;6107;49.078;8.578;2023-05-07T05:37:29;14.20;99.90
12089;DHT22;6107;49.078;8.578;2023-05-07T05:39:56;14.30;99.90
12089;DHT22;6107;49.078;8.578;2023-05-07T05:42:22;14.40;99.90
12089;DHT22;6107;49.078;8.578;2023-05-07T05:44:48;14.60;99.90
12089;DHT22;6107;49.078;8.578;2023-05-07T05:47:13;14.70;99.90
12089;DHT22;6107;49.078;8.578;2023-05-07T05:49:39;14.80;99.90
12089;DHT22;6107;49.078;8.578;2023-05-07T05:52:04;14.90;99.90
12089;DHT22;6107;49.078;8.578;2023-05-07T05:54:30;14.90;99.90
12089;DHT22;6107;49.078;8.578;2023-05-07T05:56:55;15.10;99.90
12089;DHT22;6107;49.078;8.578;2023-05-07T05:59:22;15.10;99.90
12089;DHT22;6107;49.078;8.578;2023-05-07T06:01:47;15.20;99.90
12089;DHT22;6107;49.078;8.578;2023-05-07T06:04:13;15.30;99.90
12089;DHT22;6107;49.078;8.578;2023-05-07T06:06:38;15.40;99.90
12089;DHT22;6107;49.078;8.578;2023-05-07T06:09:04;15.30;99.90
12089;DHT22;6107;49.078;8.578;2023-05-07T06:11:29;15.40;99.90
12089;DHT22;6107;49.078;8.578;2023-05-07T06:13:55;15.50;99.90
12089;DHT22;6107;49.078;8.578;2023-05-07T06:16:20;15.50;99.90
12089;DHT22;6107;49.078;8.578;2023-05-07T06:18:45;15.50;99.90
12089;DHT22;6107;49.078;8.578;2023-05-07T06:21:13;15.60;99.90
12089;DHT22;6107;49.078;8.578;2023-05-07T06:23:38;15.60;99.90
12089;DHT22;6107;49.078;8.578;2023-05-07T06:26:06;15.80;99.90
12089;DHT22;6107;49.078;8.578;2023-05-07T06:28:32;16.00;99.90
12089;DHT22;6107;49.078;8.578;2023-05-07T06:31:21;16.30;99.90
12089;DHT22;6107;49.078;8.578;2023-05-07T06:33:47;16.50;99.90
12089;DHT22;6107;49.078;8.578;2023-05-07T06:36:13;16.60;99.90
12089;DHT22;6107;49.078;8.578;2023-05-07T06:38:38;16.80;99.90
12089;DHT22;6107;49.078;8.578;2023-05-07T06:41:05;16.80;99.90
12089;DHT22;6107;49.078;8.578;2023-05-07T06:43:31;16.90;99.90
12089;DHT22;6107;49.078;8.578;2023-05-07T06:45:57;16.90;99.90
12089;DHT22;6107;49.078;8.578;2023-05-07T06:48:22;16.90;99.90
12089;DHT22;6107;49.078;8.578;2023-05-07T06:50:48;17.00;99.90
12089;DHT22;6107;49.078;8.578;2023-05-07T06:53:13;17.10;99.90
12089;DHT22;6107;49.078;8.578;2023-05-07T06:55:39;17.10;99.90
12089;DHT22;6107;49.078;8.578;2023-05-07T06:58:04;17.10;99.90
12089;DHT22;6107;49.078;8.578;2023-05-07T07:00:31;17.10;99.90
12089;DHT22;6107;49.078;8.578;2023-05-07T07:02:56;17.20;99.90
12089;DHT22;6107;49.078;8.578;2023-05-07T07:05:22;17.20;99.90
12089;DHT22;6107;49.078;8.578;2023-05-07T07:07:48;17.20;99.90
12089;DHT22;6107;49.078;8.578;2023-05-07T07:10:27;17.20;99.90
12089;DHT22;6107;49.078;8.578;2023-05-07T07:12:52;17.50;99.90
12089;DHT22;6107;49.078;8.578;2023-05-07T07:15:19;17.60;99.90
12089;DHT22;6107;49.078;8.578;2023-05-07T07:17:45;17.70;99.90
12089;DHT22;6107;49.078;8.578;2023-05-07T07:20:11;17.70;99.90
12089;DHT22;6107;49.078;8.578;2023-05-07T07:22:36;17.70;99.90
12089;DHT22;6107;49.078;8.578;2023-05-07T07:25:02;18.00;99.90
12089;DHT22;6107;49.078;8.578;2023-05-07T07:27:28;18.20;99.90
12089;DHT22;6107;49.078;8.578;2023-05-07T07:29:53;18.30;99.90
12089;DHT22;6107;49.078;8.578;2023-05-07T07:32:19;18.40;99.90
12089;DHT22;6107;49.078;8.578;2023-05-07T07:34:44;18.50;99.90
12089;DHT22;6107;49.078;8.578;2023-05-07T07:37:10;18.40;99.90
12089;DHT22;6107;49.078;8.578;2023-05-07T07:39:35;18.60;99.90
12089;DHT22;6107;49.078;8.578;2023-05-07T07:42:03;18.80;99.90
12089;DHT22;6107;49.078;8.578;2023-05-07T07:44:28;18.90;99.90
12089;DHT22;6107;49.078;8.578;2023-05-07T07:46:54;18.90;99.90
12089;DHT22;6107;49.078;8.578;2023-05-07T07:49:19;19.00;99.90
12089;DHT22;6107;49.078;8.578;2023-05-07T07:51:45;19.20;99.90
12089;DHT22;6107;49.078;8.578;2023-05-07T07:54:10;19.20;99.90
12089;DHT22;6107;49.078;8.578;2023-05-07T07:56:36;19.10;99.90
12089;DHT22;6107;49.078;8.578;2023-05-07T07:59:02;19.20;99.90
12089;DHT22;6107;49.078;8.578;2023-05-07T08:01:29;19.40;99.90
12089;DHT22;6107;49.078;8.578;2023-05-07T08:03:55;19.50;99.90
12089;DHT22;6107;49.078;8.578;2023-05-07T08:06:23;19.60;99.90
12089;DHT22;6107;49.078;8.578;2023-05-07T08:08:48;19.80;99.90
12089;DHT22;6107;49.078;8.578;2023-05-07T08:11:14;19.70;99.90
12089;DHT22;6107;49.078;8.578;2023-05-07T08:13:40;19.90;99.90
12089;DHT22;6107;49.078;8.578;2023-05-07T08:16:05;20.20;99.90
12089;DHT22;6107;49.078;8.578;2023-05-07T08:18:31;20.30;99.90
12089;DHT22;6107;49.078;8.578;2023-05-07T08:20:56;20.30;99.90
12089;DHT22;6107;49.078;8.578;2023-05-07T08:23:22;20.40;99.90
12089;DHT22;6107;49.078;8.578;2023-05-07T08:25:49;20.90;99.90
12089;DHT22;6107;49.078;8.578;2023-05-07T08:28:15;21.00;99.90
12089;DHT22;6107;49.078;8.578;2023-05-07T08:30:40;21.00;99.90
12089;DHT22;6107;49.078;8.578;2023-05-07T08:33:06;21.10;99.90
12089;DHT22;6107;49.078;8.578;2023-05-07T08:35:31;21.30;99.90
12089;DHT22;6107;49.078;8.578;2023-05-07T08:37:57;21.50;99.90
12089;DHT22;6107;49.078;8.578;2023-05-07T08:40:26;21.40;99.90
12089;DHT22;6107;49.078;8.578;2023-05-07T08:42:53;21.70;99.90
12089;DHT22;6107;49.078;8.578;2023-05-07T08:45:19;21.70;99.90
12089;DHT22;6107;49.078;8.578;2023-05-07T08:47:58;21.80;99.90
12089;DHT22;6107;49.078;8.578;2023-05-07T08:50:24;21.60;99.90
12089;DHT22;6107;49.078;8.578;2023-05-07T08:52:49;21.90;99.90
12089;DHT22;6107;49.078;8.578;2023-05-07T08:55:15;22.20;99.90
12089;DHT22;6107;49.078;8.578;2023-05-07T08:57:40;22.30;99.90
12089;DHT22;6107;49.078;8.578;2023-05-07T09:00:06;22.50;99.90
12089;DHT22;6107;49.078;8.578;2023-05-07T09:02:32;22.90;99.90
12089;DHT22;6107;49.078;8.578;2023-05-07T09:04:58;22.90;99.90
12089;DHT22;6107;49.078;8.578;2023-05-07T09:07:24;22.80;99.90
12089;DHT22;6107;49.078;8.578;2023-05-07T09:09:50;23.00;99.90
12089;DHT22;6107;49.078;8.578;2023-05-07T09:12:18;23.30;99.90
12089;DHT22;6107;49.078;8.578;2023-05-07T09:14:44;23.40;99.90
12089;DHT22;6107;49.078;8.578;2023-05-07T09:17:11;23.40;99.90
12089;DHT22;6107;49.078;8.578;2023-05-07T09:19:36;23.60;99.90
12089;DHT22;6107;49.078;8.578;2023-05-07T09:22:04;23.50;99.90
12089;DHT22;6107;49.078;8.578;2023-05-07T09:24:30;23.40;99.90
12089;DHT22;6107;49.078;8.578;2023-05-07T09:27:01;23.50;99.90
12089;DHT22;6107;49.078;8.578;2023-05-07T09:29:27;23.10;99.90
12089;DHT22;6107;49.078;8.578;2023-05-07T09:32:01;23.40;99.90
12089;DHT22;6107;49.078;8.578;2023-05-07T09:34:29;24.10;99.90
12089;DHT22;6107;49.078;8.578;2023-05-07T09:36:55;23.70;99.90
12089;DHT22;6107;49.078;8.578;2023-05-07T09:39:23;23.90;99.90
12089;DHT22;6107;49.078;8.578;2023-05-07T09:41:49;23.90;99.90
12089;DHT22;6107;49.078;8.578;2023-05-07T09:44:16;24.00;99.90
12089;DHT22;6107;49.078;8.578;2023-05-07T09:46:43;23.90;99.90
12089;DHT22;6107;49.078;8.578;2023-05-07T09:49:16;23.80;99.90
12089;DHT22;6107;49.078;8.578;2023-05-07T09:51:52;24.00;99.90
12089;DHT22;6107;49.078;8.578;2023-05-07T09:54:18;23.90;99.90
12089;DHT22;6107;49.078;8.578;2023-05-07T09:56:51;23.80;99.90
12089;DHT22;6107;49.078;8.578;2023-05-07T09:59:18;24.10;99.90
12089;DHT22;6107;49.078;8.578;2023-05-07T10:01:45;24.30;99.90
12089;DHT22;6107;49.078;8.578;2023-05-07T10:04:12;24.60;99.90
12089;DHT22;6107;49.078;8.578;2023-05-07T10:06:38;24.70;99.90
12089;DHT22;6107;49.078;8.578;2023-05-07T10:09:05;24.80;99.90
12089;DHT22;6107;49.078;8.578;2023-05-07T10:11:32;24.90;99.90
12089;DHT22;6107;49.078;8.578;2023-05-07T10:13:59;24.80;99.90
12089;DHT22;6107;49.078;8.578;2023-05-07T10:16:34;25.00;99.90
12089;DHT22;6107;49.078;8.578;2023-05-07T10:19:08;25.10;99.90
12089;DHT22;6107;49.078;8.578;2023-05-07T10:21:44;25.10;99.90
12089;DHT22;6107;49.078;8.578;2023-05-07T10:24:20;24.80;99.90
12089;DHT22;6107;49.078;8.578;2023-05-07T10:26:50;25.20;99.90
12089;DHT22;6107;49.078;8.578;2023-05-07T10:29:50;25.70;99.90
12089;DHT22;6107;49.078;8.578;2023-05-07T10:32:30;25.80;99.90
12089;DHT22;6107;49.078;8.578;2023-05-07T10:35:01;26.00;99.90
12089;DHT22;6107;49.078;8.578;2023-05-07T10:39:53;26.10;99.90
12089;DHT22;6107;49.078;8.578;2023-05-07T10:42:19;26.70;99.90
12089;DHT22;6107;49.078;8.578;2023-05-07T10:44:45;26.70;99.90
12089;DHT22;6107;49.078;8.578;2023-05-07T10:47:15;26.80;99.90
12089;DHT22;6107;49.078;8.578;2023-05-07T10:54:44;27.00;99.90
12089;DHT22;6107;49.078;8.578;2023-05-07T10:57:33;26.90;99.90
12089;DHT22;6107;49.078;8.578;2023-05-07T10:59:59;26.40;99.90
12089;DHT22;6107;49.078;8.578;2023-05-07T11:05:30;26.20;99.90
12089;DHT22;6107;49.078;8.578;2023-05-07T11:08:00;26.80;99.90
12089;DHT22;6107;49.078;8.578;2023-05-07T11:10:48;27.20;99.90
12089;DHT22;6107;49.078;8.578;2023-05-07T11:13:14;27.80;99.90
12089;DHT22;6107;49.078;8.578;2023-05-07T11:15:43;27.70;99.90
12089;DHT22;6107;49.078;8.578;2023-05-07T11:18:10;27.80;99.90
12089;DHT22;6107;49.078;8.578;2023-05-07T11:20:53;27.20;99.90
12089;DHT22;6107;49.078;8.578;2023-05-07T11:26:41;26.40;99.90
12089;DHT22;6107;49.078;8.578;2023-05-07T11:29:15;26.80;99.90
12089;DHT22;6107;49.078;8.578;2023-05-07T11:31:41;27.70;99.90
12089;DHT22;6107;49.078;8.578;2023-05-07T11:34:08;27.70;99.90
12089;DHT22;6107;49.078;8.578;2023-05-07T11:36:37;27.80;99.90
12089;DHT22;6107;49.078;8.578;2023-05-07T11:39:26;28.30;99.90
12089;DHT22;6107;49.078;8.578;2023-05-07T11:41:52;28.20;99.90
12089;DHT22;6107;49.078;8.578;2023-05-07T11:44:18;27.80;99.90
12089;DHT22;6107;49.078;8.578;2023-05-07T11:46:44;27.80;99.90
12089;DHT22;6107;49.078;8.578;2023-05-07T11:49:10;28.50;99.90
12089;DHT22;6107;49.078;8.578;2023-05-07T11:51:36;30.10;99.90
12089;DHT22;6107;49.078;8.578;2023-05-07T11:54:03;28.70;99.90
12089;DHT22;6107;49.078;8.578;2023-05-07T11:56:34;28.50;99.90
12089;DHT22;6107;49.078;8.578;2023-05-07T11:59:00;28.90;99.90
12089;DHT22;6107;49.078;8.578;2023-05-07T12:01:26;28.20;99.90
12089;DHT22;6107;49.078;8.578;2023-05-07T12:06:18;27.20;99.90
12089;DHT22;6107;49.078;8.578;2023-05-07T12:08:45;27.20;99.90
12089;DHT22;6107;49.078;8.578;2023-05-07T12:11:29;26.80;99.90
12089;DHT22;6107;49.078;8.578;2023-05-07T12:13:55;27.00;99.90
12089;DHT22;6107;49.078;8.578;2023-05-07T12:16:21;27.30;99.90
12089;DHT22;6107;49.078;8.578;2023-05-07T12:18:47;27.20;99.90
12089;DHT22;6107;49.078;8.578;2023-05-07T12:21:13;27.30;99.90
12089;DHT22;6107;49.078;8.578;2023-05-07T12:23:40;27.80;99.90
12089;DHT22;6107;49.078;8.578;2023-05-07T12:26:05;27.30;99.90
12089;DHT22;6107;49.078;8.578;2023-05-07T12:28:36;27.10;99.90
12089;DHT22;6107;49.078;8.578;2023-05-07T12:31:03;26.90;99.90
12089;DHT22;6107;49.078;8.578;2023-05-07T12:33:29;27.10;99.90
12089;DHT22;6107;49.078;8.578;2023-05-07T12:35:56;27.10;99.90
12089;DHT22;6107;49.078;8.578;2023-05-07T12:38:22;26.90;99.90
12089;DHT22;6107;49.078;8.578;2023-05-07T12:40:49;26.70;99.90
12089;DHT22;6107;49.078;8.578;2023-05-07T12:43:25;26.70;99.90
12089;DHT22;6107;49.078;8.578;2023-05-07T12:45:54;26.80;99.90
12089;DHT22;6107;49.078;8.578;2023-05-07T12:48:21;26.50;99.90
12089;DHT22;6107;49.078;8.578;2023-05-07T12:50:50;26.30;99.90
12089;DHT22;6107;49.078;8.578;2023-05-07T12:53:16;26.50;99.90
12089;DHT22;6107;49.078;8.578;2023-05-07T12:55:46;26.50;99.90
12089;DHT22;6107;49.078;8.578;2023-05-07T13:00:42;27.50;99.90
12089;DHT22;6107;49.078;8.578;2023-05-07T13:03:09;27.50;99.90
12089;DHT22;6107;49.078;8.578;2023-05-07T13:05:37;27.90;99.90
12089;DHT22;6107;49.078;8.578;2023-05-07T13:08:02;27.90;99.90
12089;DHT22;6107;49.078;8.578;2023-05-07T13:10:28;27.30;99.90
12089;DHT22;6107;49.078;8.578;2023-05-07T13:12:54;27.60;99.90
12089;DHT22;6107;49.078;8.578;2023-05-07T13:15:20;27.50;99.90
12089;DHT22;6107;49.078;8.578;2023-05-07T13:17:46;27.20;99.90
12089;DHT22;6107;49.078;8.578;2023-05-07T13:20:12;27.10;99.90
12089;DHT22;6107;49.078;8.578;2023-05-07T13:25:09;26.40;99.90
12089;DHT22;6107;49.078;8.578;2023-05-07T13:27:35;25.90;99.90
12089;DHT22;6107;49.078;8.578;2023-05-07T13:30:05;25.80;99.90
12089;DHT22;6107;49.078;8.578;2023-05-07T13:32:31;26.00;99.90
12089;DHT22;6107;49.078;8.578;2023-05-07T13:34:57;25.60;99.90
12089;DHT22;6107;49.078;8.578;2023-05-07T13:37:23;25.10;99.90
12089;DHT22;6107;49.078;8.578;2023-05-07T13:39:48;24.20;99.90
12089;DHT22;6107;49.078;8.578;2023-05-07T13:42:14;23.00;99.90
12089;DHT22;6107;49.078;8.578;2023-05-07T13:44:39;22.60;99.90
12089;DHT22;6107;49.078;8.578;2023-05-07T13:47:07;20.50;99.90
12089;DHT22;6107;49.078;8.578;2023-05-07T13:49:35;18.60;99.90
12089;DHT22;6107;49.078;8.578;2023-05-07T13:52:01;18.20;99.90
12089;DHT22;6107;49.078;8.578;2023-05-07T13:54:26;18.20;99.90
12089;DHT22;6107;49.078;8.578;2023-05-07T13:56:52;18.30;99.90
12089;DHT22;6107;49.078;8.578;2023-05-07T13:59:18;18.10;99.90
12089;DHT22;6107;49.078;8.578;2023-05-07T14:01:43;18.30;99.90
12089;DHT22;6107;49.078;8.578;2023-05-07T14:04:09;18.10;99.90
12089;DHT22;6107;49.078;8.578;2023-05-07T14:06:35;18.50;99.90
12089;DHT22;6107;49.078;8.578;2023-05-07T14:09:00;18.60;99.90
12089;DHT22;6107;49.078;8.578;2023-05-07T14:11:26;18.70;99.90
12089;DHT22;6107;49.078;8.578;2023-05-07T14:13:51;18.60;99.90
12089;DHT22;6107;49.078;8.578;2023-05-07T14:16:17;18.40;99.90
12089;DHT22;6107;49.078;8.578;2023-05-07T14:18:42;17.60;99.90
12089;DHT22;6107;49.078;8.578;2023-05-07T14:21:08;17.40;99.90
12089;DHT22;6107;49.078;8.578;2023-05-07T14:23:37;17.60;99.90
12089;DHT22;6107;49.078;8.578;2023-05-07T14:26:02;17.60;99.90
12089;DHT22;6107;49.078;8.578;2023-05-07T14:28:28;17.40;99.90
12089;DHT22;6107;49.078;8.578;2023-05-07T14:30:54;17.20;99.90
12089;DHT22;6107;49.078;8.578;2023-05-07T14:33:19;17.70;99.90
12089;DHT22;6107;49.078;8.578;2023-05-07T14:35:45;18.10;99.90
12089;DHT22;6107;49.078;8.578;2023-05-07T14:38:14;17.80;99.90
12089;DHT22;6107;49.078;8.578;2023-05-07T14:40:39;17.80;99.90
12089;DHT22;6107;49.078;8.578;2023-05-07T14:43:05;17.80;99.90
12089;DHT22;6107;49.078;8.578;2023-05-07T14:45:31;18.00;99.90
12089;DHT22;6107;49.078;8.578;2023-05-07T14:47:56;17.70;99.90
12089;DHT22;6107;49.078;8.578;2023-05-07T14:50:22;17.40;99.90
12089;DHT22;6107;49.078;8.578;2023-05-07T14:52:47;17.80;99.90
12089;DHT22;6107;49.078;8.578;2023-05-07T14:55:13;17.80;99.90
12089;DHT22;6107;49.078;8.578;2023-05-07T14:57:39;17.60;99.90
12089;DHT22;6107;49.078;8.578;2023-05-07T15:00:05;17.60;99.90
12089;DHT22;6107;49.078;8.578;2023-05-07T15:02:32;17.40;99.90
12089;DHT22;6107;49.078;8.578;2023-05-07T15:05:00;17.20;99.90
12089;DHT22;6107;49.078;8.578;2023-05-07T15:07:25;17.40;99.90
12089;DHT22;6107;49.078;8.578;2023-05-07T15:09:51;17.80;99.90
12089;DHT22;6107;49.078;8.578;2023-05-07T15:12:17;18.10;99.90
12089;DHT22;6107;49.078;8.578;2023-05-07T15:14:44;17.70;99.90
12089;DHT22;6107;49.078;8.578;2023-05-07T15:17:10;18.00;99.90
12089;DHT22;6107;49.078;8.578;2023-05-07T15:19:36;18.00;99.90
12089;DHT22;6107;49.078;8.578;2023-05-07T15:22:01;18.00;99.90
12089;DHT22;6107;49.078;8.578;2023-05-07T15:24:31;18.00;99.90
12089;DHT22;6107;49.078;8.578;2023-05-07T15:26:56;17.90;99.90
12089;DHT22;6107;49.078;8.578;2023-05-07T15:29:23;18.00;99.90
12089;DHT22;6107;49.078;8.578;2023-05-07T15:31:49;17.70;99.90
12089;DHT22;6107;49.078;8.578;2023-05-07T15:34:15;17.40;99.90
12089;DHT22;6107;49.078;8.578;2023-05-07T15:36:41;17.60;99.90
12089;DHT22;6107;49.078;8.578;2023-05-07T15:39:06;17.90;99.90
12089;DHT22;6107;49.078;8.578;2023-05-07T15:41:32;18.10;99.90
12089;DHT22;6107;49.078;8.578;2023-05-07T15:43:58;17.60;99.90
12089;DHT22;6107;49.078;8.578;2023-05-07T15:46:24;17.60;99.90
12089;DHT22;6107;49.078;8.578;2023-05-07T15:48:53;17.50;99.90
12089;DHT22;6107;49.078;8.578;2023-05-07T15:51:21;18.50;99.90
12089;DHT22;6107;49.078;8.578;2023-05-07T15:53:48;18.50;99.90
12089;DHT22;6107;49.078;8.578;2023-05-07T15:56:14;18.80;99.90
12089;DHT22;6107;49.078;8.578;2023-05-07T15:58:39;18.80;99.90
12089;DHT22;6107;49.078;8.578;2023-05-07T16:01:05;19.10;99.90
12089;DHT22;6107;49.078;8.578;2023-05-07T16:03:31;18.90;99.90